Time;durP1;ratioP1;P1;durP2;ratioP2;P2;SDS_P1;SDS_P2;PMS_P1;PMS_P2;Temp;Humidity;BMP_temperature;BMP_pressure;BME280_temperature;BME280_humidity;BME280_pressure;Samples;Min_cycle;Max_cycle;Signal;HPM_P1;HPM_P2
2022/01/12 00:02:18;;;;;;;;;;;;;;;6.53;68.58;103296.38;5147202;27;57260;-79
2022/01/12 00:04:43;;;;;;;;;;;;;;;6.46;69.08;103302.16;5149588;27;26996;-79
2022/01/12 00:07:08;;;;;;;;;;;;;;;6.38;69.50;103310.41;5151155;27;26925;-78
2022/01/12 00:09:33;;;;;;;;;;;;;;;6.31;68.78;103311.91;5147743;27;55267;-78
2022/01/12 00:11:59;;;;;;;;;;;;;;;6.28;69.51;103311.81;5144442;27;56691;-78
2022/01/12 00:14:27;;;;;;;;;;;;;;;6.24;69.50;103315.09;5145465;27;27018;-78
2022/01/12 00:16:58;;;;;;;;;;;;;;;6.24;69.18;103320.25;5146484;27;27579;-78
2022/01/12 00:19:24;;;;;;;;;;;;;;;6.24;69.48;103320.25;5146459;27;26947;-78
2022/01/12 00:21:49;;;;;;;;;;;;;;;6.22;69.84;103311.63;5146357;27;26933;-78
2022/01/12 00:24:14;;;;;;;;;;;;;;;6.22;69.90;103316.75;5145710;27;55545;-78
2022/01/12 00:33:07;;;;;;;;;;;;;;;6.22;69.21;103316.75;5147590;27;47981;-78
2022/01/12 00:34:52;;;;;;;;;;;;;;;6.12;69.75;103314.69;5145776;27;26726;-78
2022/01/12 00:37:17;;;;;;;;;;;;;;;6.10;69.83;103308.66;5152667;27;48134;-77
2022/01/12 00:39:42;;;;;;;;;;;;;;;6.07;69.29;103321.38;5153056;27;53930;-78
2022/01/12 00:42:11;;;;;;;;;;;;;;;6.05;69.38;103320.44;5145113;27;57487;-77
2022/01/12 00:44:36;;;;;;;;;;;;;;;6.03;69.98;103330.66;5140920;27;26794;-77
2022/01/12 00:47:02;;;;;;;;;;;;;;;6.01;70.47;103333.97;5142738;27;27001;-78
2022/01/12 00:49:27;;;;;;;;;;;;;;;5.99;70.00;103340.75;5143281;27;26758;-78
2022/01/12 00:51:54;;;;;;;;;;;;;;;5.95;69.63;103336.34;5142984;27;26729;-78
2022/01/12 00:54:20;;;;;;;;;;;;;;;5.94;69.63;103352.53;5142547;27;26877;-78
2022/01/12 00:56:45;;;;;;;;;;;;;;;5.90;69.79;103353.25;5141793;27;26865;-78
2022/01/12 00:59:10;;;;;;;;;;;;;;;5.89;69.93;103356.63;5142405;27;26811;-78
2022/01/12 01:01:35;;;;;;;;;;;;;;;5.90;70.84;103353.25;5147364;27;56977;-78
2022/01/12 01:04:02;;;;;;;;;;;;;;;5.89;70.19;103352.38;5142311;27;26780;-78
2022/01/12 01:06:27;;;;;;;;;;;;;;;5.88;71.33;103354.91;5139680;27;27019;-78
2022/01/12 01:08:52;;;;;;;;;;;;;;;5.87;70.86;103342.91;5140329;27;26908;-78
2022/01/12 01:11:18;;;;;;;;;;;;;;;5.87;70.25;103337.75;5139056;27;57393;-78
2022/01/12 01:13:55;;;;;;;;;;;;;;;5.88;70.93;103334.38;5140571;27;26954;-77
2022/01/12 01:16:27;;;;;;;;;;;;;;;5.91;69.70;103334.50;5140529;27;27208;-78
2022/01/12 01:27:04;;;;;;;;;;;;;;;5.89;70.37;103351.50;5141923;27;26749;-77
2022/01/12 01:29:30;;;;;;;;;;;;;;;5.88;69.82;103354.91;5141426;27;26860;-78
2022/01/12 01:31:55;;;;;;;;;;;;;;;5.85;70.29;103359.06;5144842;27;26786;-78
2022/01/12 01:34:20;;;;;;;;;;;;;;;5.85;70.61;103351.38;5141758;27;26838;-78
2022/01/12 01:36:47;;;;;;;;;;;;;;;5.87;70.63;103353.16;5141804;27;32257;-78
2022/01/12 01:39:14;;;;;;;;;;;;;;;5.87;70.53;103361.72;5141684;27;27077;-78
2022/01/12 01:41:42;;;;;;;;;;;;;;;5.92;70.01;103373.03;5139725;27;27652;-77
2022/01/12 01:44:32;;;;;;;;;;;;;;;5.92;70.64;103378.16;5139945;27;26861;-77
2022/01/12 01:55:05;;;;;;;;;;;;;;;5.93;70.74;103368.75;5139769;27;26995;-78
2022/01/12 01:57:31;;;;;;;;;;;;;;;5.93;69.68;103363.63;5140218;27;26893;-77
2022/01/12 01:59:57;;;;;;;;;;;;;;;5.94;70.81;103362.81;5140766;27;26949;-78
2022/01/12 02:02:22;;;;;;;;;;;;;;;5.93;70.72;103354.22;5140960;27;26798;-78
2022/01/12 02:04:47;;;;;;;;;;;;;;;5.94;70.65;103355.09;5139203;27;39399;-78
2022/01/12 02:07:14;;;;;;;;;;;;;;;5.93;69.83;103348.22;5139697;27;26928;-78
2022/01/12 02:09:39;;;;;;;;;;;;;;;5.94;70.80;103355.09;5140713;27;26872;-78
2022/01/12 02:12:05;;;;;;;;;;;;;;;5.93;70.22;103353.34;5141318;27;49971;-78
2022/01/12 02:14:30;;;;;;;;;;;;;;;5.92;69.81;103356.75;5144207;27;26787;-78
2022/01/12 02:17:04;;;;;;;;;;;;;;;5.91;70.79;103352.44;5155432;27;27574;-78
2022/01/12 02:19:50;;;;;;;;;;;;;;;5.92;70.90;103351.63;5146685;27;26862;-78
2022/01/12 02:36:12;;;;;;;;;;;;;;;5.84;70.31;103357.34;5139042;27;26794;-78
2022/01/12 02:41:21;;;;;;;;;;;;;;;5.87;71.19;103374.53;5139660;27;26915;-79
2022/01/12 02:53:39;;;;;;;;;;;;;;;5.80;70.96;103406.75;5142974;27;26862;-78
2022/01/12 02:54:43;;;;;;;;;;;;;;;5.76;71.55;103416.84;5141906;27;26789;-78
2022/01/12 02:57:09;;;;;;;;;;;;;;;5.77;71.13;103409.19;5141836;27;40704;-78
2022/01/12 02:59:34;;;;;;;;;;;;;;;5.77;71.45;103414.31;5141636;27;26721;-80
2022/01/12 03:04:55;;;;;;;;;;;;;;;5.78;71.54;103431.47;5139332;27;26891;-79
2022/01/12 03:07:22;;;;;;;;;;;;;;;5.81;71.59;103430.72;5138213;27;26382;-78
2022/01/12 03:09:48;;;;;;;;;;;;;;;5.81;71.03;103441.81;5138909;27;26810;-79
2022/01/12 03:12:13;;;;;;;;;;;;;;;5.82;71.04;103453.84;5138888;27;26829;-80
2022/01/12 03:14:38;;;;;;;;;;;;;;;5.83;70.74;103460.72;5137482;27;56353;-80
2022/01/12 03:17:03;;;;;;;;;;;;;;;5.81;71.22;103462.34;5137873;27;54775;-80
2022/01/12 03:19:29;;;;;;;;;;;;;;;5.80;71.19;103465.75;5138936;27;27474;-78
2022/01/12 03:21:54;;;;;;;;;;;;;;;5.80;71.14;103465.75;5146382;27;54884;-78
2022/01/12 03:24:19;;;;;;;;;;;;;;;5.81;71.10;103452.09;5143825;27;53713;-77
2022/01/12 03:26:45;;;;;;;;;;;;;;;5.81;71.41;103446.94;5138843;27;26834;-79
2022/01/12 03:29:10;;;;;;;;;;;;;;;5.82;71.71;103448.72;5137930;27;26694;-79
2022/01/12 03:31:36;;;;;;;;;;;;;;;5.82;71.55;103448.72;5138620;27;26462;-79
2022/01/12 03:34:08;;;;;;;;;;;;;;;5.82;71.54;103448.72;5139581;27;26861;-79
2022/01/12 03:39:05;;;;;;;;;;;;;;;5.85;72.16;103447.94;5140418;27;27103;-79
2022/01/12 03:41:32;;;;;;;;;;;;;;;5.87;71.17;103445.47;5145800;27;27237;-79
2022/01/12 03:43:58;;;;;;;;;;;;;;;5.90;71.32;103435.31;5143981;27;28525;-79
2022/01/12 03:46:25;;;;;;;;;;;;;;;5.92;71.67;103429.47;5138574;27;27082;-79
2022/01/12 03:48:51;;;;;;;;;;;;;;;5.96;71.70;103425.31;5138610;27;27664;-79
2022/01/12 03:51:16;;;;;;;;;;;;;;;5.99;71.29;103436.56;5142808;27;26767;-80
2022/01/12 03:53:41;;;;;;;;;;;;;;;6.02;71.78;103446.03;5140168;27;26874;-80
2022/01/12 03:56:06;;;;;;;;;;;;;;;6.02;71.83;103440.91;5138501;27;26958;-79
2022/01/12 03:58:32;;;;;;;;;;;;;;;6.03;71.14;103442.66;5136979;27;56063;-79
2022/01/12 04:00:57;;;;;;;;;;;;;;;6.01;72.21;103445.16;5145182;27;41644;-79
2022/01/12 04:03:25;;;;;;;;;;;;;;;5.98;71.48;103449.31;5144283;27;57268;-79
2022/01/12 04:08:38;;;;;;;;;;;;;;;5.97;71.14;103421.91;5097984;27;27185;-79
2022/01/12 04:11:03;;;;;;;;;;;;;;;5.98;71.65;103423.66;5144842;27;26975;-79
2022/01/12 04:13:30;;;;;;;;;;;;;;;6.01;71.15;103434.03;5143606;27;57136;-79
2022/01/12 04:16:01;;;;;;;;;;;;;;;6.03;71.10;103447.78;5139412;27;26985;-79
2022/01/12 04:18:26;;;;;;;;;;;;;;;6.04;71.62;103452.09;5141086;27;26995;-79
2022/01/12 04:20:51;;;;;;;;;;;;;;;6.02;71.57;103451.16;5147879;27;26819;-79
2022/01/12 04:23:18;;;;;;;;;;;;;;;6.01;71.24;103445.16;5145389;27;27782;-78
2022/01/12 04:25:50;;;;;;;;;;;;;;;6.02;72.04;103440.91;5142464;27;27015;-78
2022/01/12 04:28:16;;;;;;;;;;;;;;;6.03;72.19;103437.53;5141488;27;26890;-78
2022/01/12 04:30:42;;;;;;;;;;;;;;;6.04;71.29;103434.13;5141706;27;27142;-78
2022/01/12 04:33:07;;;;;;;;;;;;;;;6.07;71.51;103431.69;5144389;27;26769;-79
2022/01/12 04:35:36;;;;;;;;;;;;;;;6.10;71.24;103434.38;5144407;27;36760;-78
2022/01/12 04:38:01;;;;;;;;;;;;;;;6.14;71.34;103426.84;5145199;27;27003;-78
2022/01/12 04:40:27;;;;;;;;;;;;;;;6.17;71.06;103426.06;5145335;27;26882;-78
2022/01/12 04:42:56;;;;;;;;;;;;;;;6.15;71.67;103432.81;5144083;27;56629;-78
2022/01/12 04:50:21;;;;;;;;;;;;;;;6.11;71.50;103456.66;5138813;27;26865;-78
2022/01/12 04:52:46;;;;;;;;;;;;;;;6.08;71.85;103457.38;5141590;27;27730;-77
2022/01/12 04:55:12;;;;;;;;;;;;;;;6.05;71.63;103451.28;5140604;27;26874;-77
2022/01/12 04:57:37;;;;;;;;;;;;;;;6.02;72.28;103448.59;5141033;27;26953;-77
2022/01/12 05:00:09;;;;;;;;;;;;;;;6.01;71.92;103446.84;5140021;27;53945;-78
2022/01/12 05:13:32;;;;;;;;;;;;;;;5.94;71.83;103416.66;5145546;27;26897;-78
2022/01/12 05:15:58;;;;;;;;;;;;;;;6.06;72.08;103442.75;5141444;27;26937;-79
2022/01/12 05:18:23;;;;;;;;;;;;;;;6.08;72.08;103452.25;5140672;27;27531;-78
2022/01/12 05:20:48;;;;;;;;;;;;;;;6.10;71.71;103449.75;5143624;27;27049;-78
2022/01/12 05:23:14;;;;;;;;;;;;;;;6.11;71.76;103446.38;5144158;27;26830;-78
2022/01/12 05:25:39;;;;;;;;;;;;;;;6.11;71.99;103443.81;5143736;27;26730;-78
2022/01/12 05:28:05;;;;;;;;;;;;;;;6.11;72.25;103444.66;5144733;27;26839;-78
2022/01/12 05:30:30;;;;;;;;;;;;;;;6.13;71.38;103448.16;5143773;27;26724;-78
2022/01/12 05:32:55;;;;;;;;;;;;;;;6.15;72.14;103443.06;5143719;27;56179;-78
2022/01/12 05:35:21;;;;;;;;;;;;;;;6.16;71.55;103449.97;5143776;27;26650;-78
2022/01/12 05:37:46;;;;;;;;;;;;;;;6.16;71.53;103457.66;5143974;27;27320;-79
2022/01/12 05:40:16;;;;;;;;;;;;;;;6.17;72.12;103461.97;5144335;27;26830;-78
2022/01/12 05:42:43;;;;;;;;;;;;;;;6.20;71.43;103462.09;5144990;27;26965;-78
2022/01/12 05:45:08;;;;;;;;;;;;;;;6.20;71.73;103469.78;5143056;27;26888;-78
2022/01/12 05:50:08;;;;;;;;;;;;;;;6.27;71.41;103458.91;5138470;27;26826;-78
2022/01/12 05:52:33;;;;;;;;;;;;;;;6.31;71.85;103463.34;5144358;27;26919;-78
2022/01/12 05:54:59;;;;;;;;;;;;;;;6.36;71.89;103464.38;5145544;27;26598;-78
2022/01/12 05:57:26;;;;;;;;;;;;;;;6.40;72.35;103466.25;5144747;27;27548;-78
2022/01/12 05:59:51;;;;;;;;;;;;;;;6.42;71.50;103474.84;5143750;27;26941;-79
2022/01/12 06:02:16;;;;;;;;;;;;;;;6.42;72.07;103474.84;5143056;27;56373;-78
2022/01/12 06:04:41;;;;;;;;;;;;;;;6.42;71.58;103490.25;5143442;27;26885;-79
2022/01/12 06:07:06;;;;;;;;;;;;;;;6.40;71.27;103481.63;5155949;27;26996;-79
2022/01/12 06:09:32;;;;;;;;;;;;;;;6.40;71.33;103491.91;5152932;27;26675;-78
2022/01/12 06:11:57;;;;;;;;;;;;;;;6.40;71.63;103486.78;5157197;27;55891;-79
2022/01/12 06:14:22;;;;;;;;;;;;;;;6.37;71.69;103486.69;5141253;27;54091;-78
2022/01/12 06:16:47;;;;;;;;;;;;;;;6.34;72.09;103491.66;5139673;27;36599;-78
2022/01/12 06:19:12;;;;;;;;;;;;;;;6.34;71.87;103507.06;5139975;27;27011;-79
2022/01/12 06:21:38;;;;;;;;;;;;;;;6.32;71.86;103508.72;5140341;27;27555;-79
2022/01/12 06:24:03;;;;;;;;;;;;;;;6.32;71.95;103504.47;5140532;27;26797;-79
2022/01/12 06:26:28;;;;;;;;;;;;;;;6.32;72.22;103508.72;5144076;27;26972;-79
2022/01/12 06:31:34;;;;;;;;;;;;;;;6.29;71.67;103524.91;5140415;27;27027;-79
2022/01/12 06:34:00;;;;;;;;;;;;;;;6.30;72.24;103536.00;5143271;27;26821;-79
2022/01/12 06:36:26;;;;;;;;;;;;;;;6.34;72.39;103542.16;5145637;27;55993;-79
2022/01/12 06:38:51;;;;;;;;;;;;;;;6.36;71.62;103546.53;5155410;27;27001;-79
2022/01/12 06:41:18;;;;;;;;;;;;;;;6.37;72.21;103553.41;5142674;27;27183;-79
2022/01/12 06:43:44;;;;;;;;;;;;;;;6.39;72.56;103541.50;5150533;27;27162;-79
2022/01/12 06:46:10;;;;;;;;;;;;;;;6.42;72.56;103544.16;5149750;27;26937;-79
2022/01/12 06:48:35;;;;;;;;;;;;;;;6.46;72.51;103538.31;5156028;27;26457;-79
2022/01/12 06:51:00;;;;;;;;;;;;;;;6.51;71.82;103541.06;5138633;27;27472;-79
2022/01/12 06:53:25;;;;;;;;;;;;;;;6.56;72.47;103555.78;5137815;27;26868;-78
2022/01/12 06:55:51;;;;;;;;;;;;;;;6.60;72.63;103554.19;5136372;27;26897;-79
2022/01/12 06:58:16;;;;;;;;;;;;;;;6.64;72.18;103558.63;5134564;27;27151;-79
2022/01/12 07:00:41;;;;;;;;;;;;;;;6.65;72.09;103556.13;5131701;27;43638;-79
2022/01/12 07:03:06;;;;;;;;;;;;;;;6.64;72.11;103562.06;5126200;27;26993;-78
2022/01/12 07:05:32;;;;;;;;;;;;;;;6.67;72.44;103569.03;5122639;27;27144;-78
2022/01/12 07:07:57;;;;;;;;;;;;;;;6.68;72.45;103558.81;5118241;27;27230;-77
2022/01/12 07:10:22;;;;;;;;;;;;;;;6.69;71.93;103558.00;5117779;27;42049;-78
2022/01/12 07:12:47;;;;;;;;;;;;;;;6.74;71.81;103561.59;5118111;27;27045;-78
2022/01/12 07:15:13;;;;;;;;;;;;;;;6.73;71.52;103554.72;5114870;27;27005;-78
2022/01/12 07:17:38;;;;;;;;;;;;;;;6.80;71.94;103556.66;5114557;27;27094;-78
2022/01/12 07:20:04;;;;;;;;;;;;;;;6.83;72.47;103561.03;5107397;27;27378;-79
2022/01/12 07:22:30;;;;;;;;;;;;;;;6.88;71.78;103558.63;5091557;27;27223;-78
2022/01/12 07:24:55;;;;;;;;;;;;;;;6.90;71.80;103562.13;5081005;27;27815;-78
2022/01/12 07:27:20;;;;;;;;;;;;;;;6.90;72.16;103557.00;5082804;27;27225;-78
2022/01/12 07:29:45;;;;;;;;;;;;;;;6.94;72.00;103569.09;5086945;27;27307;-77
2022/01/12 07:32:10;;;;;;;;;;;;;;;6.95;71.94;103578.56;5090144;27;50485;-79
2022/01/12 07:34:35;;;;;;;;;;;;;;;6.96;72.14;103588.03;5096805;27;27210;-80
2022/01/12 07:37:01;;;;;;;;;;;;;;;6.98;71.69;103591.50;5099303;27;55450;-77
2022/01/12 07:39:26;;;;;;;;;;;;;;;6.99;71.85;103598.41;5101666;27;28106;-80
2022/01/12 07:41:51;;;;;;;;;;;;;;;7.01;71.86;103607.06;5106817;27;27291;-80
2022/01/12 07:44:16;;;;;;;;;;;;;;;7.00;71.92;103611.31;5109659;27;27263;-80
2022/01/12 07:46:42;;;;;;;;;;;;;;;6.88;71.95;103599.72;5112899;27;27312;-80
2022/01/12 07:49:07;;;;;;;;;;;;;;;7.01;71.73;103622.47;5111983;27;27235;-80
2022/01/12 07:51:32;;;;;;;;;;;;;;;6.99;71.76;103624.09;5090493;27;27253;-80
2022/01/12 07:53:57;;;;;;;;;;;;;;;7.04;71.76;103623.44;5108268;27;27100;-80
2022/01/12 07:56:23;;;;;;;;;;;;;;;7.05;71.65;103634.63;5102810;27;43404;-80
2022/01/12 07:58:49;;;;;;;;;;;;;;;7.06;72.10;103638.91;5101076;27;27206;-79
2022/01/12 08:01:14;;;;;;;;;;;;;;;7.06;71.43;103636.34;5105089;27;27306;-79
2022/01/12 08:03:39;;;;;;;;;;;;;;;7.07;71.70;103645.81;5107604;27;57383;-80
2022/01/12 08:06:05;;;;;;;;;;;;;;;7.11;72.06;103645.09;5114604;27;48842;-80
2022/01/12 08:08:33;;;;;;;;;;;;;;;7.02;72.04;103629.34;5117949;27;27225;-80
2022/01/12 08:10:58;;;;;;;;;;;;;;;7.08;71.60;103634.72;5096667;27;27364;-80
2022/01/12 08:13:23;;;;;;;;;;;;;;;7.19;72.07;103653.94;5116338;27;56617;-80
2022/01/12 08:15:49;;;;;;;;;;;;;;;7.20;71.34;103661.69;5112998;27;27029;-82
2022/01/12 08:18:14;;;;;;;;;;;;;;;7.24;72.07;103657.53;5109642;27;27154;-81
2022/01/12 08:20:41;;;;;;;;;;;;;;;7.27;71.83;103652.53;5099912;27;26999;-82
2022/01/12 08:23:06;;;;;;;;;;;;;;;7.32;71.97;103660.38;5094299;27;26988;-80
2022/01/12 08:25:31;;;;;;;;;;;;;;;7.36;72.10;103663.09;5088419;27;27282;-82
2022/01/12 08:27:56;;;;;;;;;;;;;;;7.40;72.40;103675.25;5054071;27;27499;-81
2022/01/12 08:30:28;;;;;;;;;;;;;;;7.54;72.88;103674.00;5080639;27;27708;-78
2022/01/12 08:32:53;;;;;;;;;;;;;;;7.72;73.00;103659.16;5099283;27;27308;-79
2022/01/12 08:35:21;;;;;;;;;;;;;;;7.99;72.64;103673.75;5105858;27;27250;-82
2022/01/12 08:37:46;;;;;;;;;;;;;;;8.07;72.23;103674.88;5087001;27;28053;-78
2022/01/12 08:40:12;;;;;;;;;;;;;;;8.09;72.09;103673.25;5108691;27;27074;-82
2022/01/12 08:42:37;;;;;;;;;;;;;;;8.09;71.89;103675.81;5123334;27;27089;-80
2022/01/12 08:45:04;;;;;;;;;;;;;;;8.09;71.95;103670.66;5121101;27;27269;-80
2022/01/12 08:47:30;;;;;;;;;;;;;;;8.10;72.21;103662.09;5116557;27;28142;-80
2022/01/12 08:49:55;;;;;;;;;;;;;;;8.12;71.78;103655.31;5103485;27;27100;-78
2022/01/12 08:52:25;;;;;;;;;;;;;;;8.16;71.77;103652.00;5095867;27;27077;-81
2022/01/12 08:54:50;;;;;;;;;;;;;;;8.15;71.08;103650.25;5103079;27;27253;-82
2022/01/12 08:57:16;;;;;;;;;;;;;;;8.17;71.97;103651.19;5102035;27;28569;-84
2022/01/12 08:59:41;;;;;;;;;;;;;;;8.19;71.92;103647.81;5103567;27;27202;-84
2022/01/12 09:02:07;;;;;;;;;;;;;;;8.20;71.19;103659.00;5103567;27;47555;-84
2022/01/12 09:04:32;;;;;;;;;;;;;;;8.21;71.86;103671.06;5103067;27;27586;-84
2022/01/12 09:06:57;;;;;;;;;;;;;;;8.26;71.38;103679.78;5102587;27;27677;-82
2022/01/12 09:09:24;;;;;;;;;;;;;;;8.34;72.00;103678.34;5096414;27;54801;-83
2022/01/12 09:11:49;;;;;;;;;;;;;;;8.43;71.62;103688.94;5099354;27;27404;-84
2022/01/12 09:14:15;;;;;;;;;;;;;;;8.48;71.93;103692.50;5104882;27;27278;-84
2022/01/12 09:16:40;;;;;;;;;;;;;;;8.56;70.66;103696.19;5100834;27;27295;-81
2022/01/12 09:19:08;;;;;;;;;;;;;;;8.62;71.42;103698.94;5100074;27;27227;-81
2022/01/12 09:21:34;;;;;;;;;;;;;;;8.66;70.59;103708.50;5074544;27;29133;-81
2022/01/12 09:23:59;;;;;;;;;;;;;;;8.71;71.23;103711.22;5091898;27;27145;-81
2022/01/12 09:26:24;;;;;;;;;;;;;;;8.70;72.06;103710.34;5071357;27;28083;-80
2022/01/12 09:28:50;;;;;;;;;;;;;;;8.71;71.14;103712.09;5020283;27;27341;-78
2022/01/12 09:31:15;;;;;;;;;;;;;;;8.77;71.15;103731.16;5011659;27;27682;-78
2022/01/12 09:33:40;;;;;;;;;;;;;;;8.75;71.05;103736.25;5026663;27;27409;-78
2022/01/12 09:36:06;;;;;;;;;;;;;;;8.73;71.54;103735.34;5017057;27;38396;-78
2022/01/12 09:38:31;;;;;;;;;;;;;;;8.71;70.80;103736.97;5043928;27;41769;-78
2022/01/12 09:40:56;;;;;;;;;;;;;;;8.68;70.86;103734.31;5033421;27;27322;-77
2022/01/12 09:43:23;;;;;;;;;;;;;;;8.66;71.33;103739.41;5036380;27;46580;-78
2022/01/12 09:45:50;;;;;;;;;;;;;;;8.72;71.24;103739.63;5027803;27;27644;-78
2022/01/12 09:48:16;;;;;;;;;;;;;;;8.81;70.91;103743.31;5041978;27;27393;-78
2022/01/12 09:50:43;;;;;;;;;;;;;;;8.89;71.01;103741.78;5056470;27;27522;-78
2022/01/12 09:53:08;;;;;;;;;;;;;;;8.93;70.48;103743.63;5070218;27;27230;-77
2022/01/12 09:55:33;;;;;;;;;;;;;;;8.97;70.96;103745.47;5067434;27;53342;-77
2022/01/12 09:57:58;;;;;;;;;;;;;;;9.05;71.35;103754.31;5065077;27;27324;-77
2022/01/12 10:00:25;;;;;;;;;;;;;;;9.10;70.65;103748.47;5079595;27;27270;-79
2022/01/12 10:02:51;;;;;;;;;;;;;;;9.16;70.67;103755.47;5092058;27;27290;-77
2022/01/12 10:05:16;;;;;;;;;;;;;;;9.21;70.90;103746.19;5093580;27;27169;-77
2022/01/12 10:07:42;;;;;;;;;;;;;;;9.30;71.49;103751.56;5098450;27;27188;-77
2022/01/12 10:10:09;;;;;;;;;;;;;;;9.35;71.20;103750.00;5101070;27;27053;-77
2022/01/12 10:12:34;;;;;;;;;;;;;;;9.39;70.30;103748.38;5086112;27;27386;-75
2022/01/12 10:15:01;;;;;;;;;;;;;;;9.41;70.31;103755.31;5110200;27;36229;-78
2022/01/12 10:17:36;;;;;;;;;;;;;;;9.45;71.16;103762.31;5112143;27;27043;-77
2022/01/12 10:20:11;;;;;;;;;;;;;;;9.52;71.63;103763.38;5115501;27;27207;-77
2022/01/12 10:22:37;;;;;;;;;;;;;;;9.56;70.97;103766.06;5115120;27;27281;-77
2022/01/12 10:25:13;;;;;;;;;;;;;;;9.58;71.31;103764.41;5115722;27;27597;-78
2022/01/12 10:27:39;;;;;;;;;;;;;;;9.55;70.54;103764.34;5114128;27;27163;-77
2022/01/12 10:30:05;;;;;;;;;;;;;;;9.64;71.07;103769.72;5110099;27;27331;-77
2022/01/12 10:32:31;;;;;;;;;;;;;;;9.68;70.36;103768.97;5114061;27;26886;-77
2022/01/12 10:34:58;;;;;;;;;;;;;;;9.69;69.75;103768.16;5114784;27;27651;-78
2022/01/12 10:37:26;;;;;;;;;;;;;;;9.70;70.58;103763.88;5111650;27;27230;-78
2022/01/12 10:39:53;;;;;;;;;;;;;;;9.71;70.82;103770.75;5109366;27;27457;-79
2022/01/12 10:42:21;;;;;;;;;;;;;;;9.75;71.05;103766.56;5106110;27;26964;-79
2022/01/12 10:44:51;;;;;;;;;;;;;;;9.79;71.07;103773.53;5077453;27;29006;-80
2022/01/12 10:47:16;;;;;;;;;;;;;;;9.82;71.00;103778.78;5076696;27;27686;-82
2022/01/12 10:49:43;;;;;;;;;;;;;;;9.84;70.41;103777.13;5058829;27;28201;-85
2022/01/12 10:52:10;;;;;;;;;;;;;;;9.83;70.79;103775.34;5014888;28;27443;-81
2022/01/12 10:54:42;;;;;;;;;;;;;;;9.82;70.11;103779.69;5023605;28;27453;-83
2022/01/12 10:57:15;;;;;;;;;;;;;;;9.84;70.27;103777.13;5025625;28;27304;-80
2022/01/12 10:59:40;;;;;;;;;;;;;;;9.85;68.96;103784.03;5030307;28;27334;-85
2022/01/12 11:02:05;;;;;;;;;;;;;;;9.83;69.84;103780.53;5040638;28;55214;-82
2022/01/12 11:04:31;;;;;;;;;;;;;;;9.84;69.69;103787.44;5037948;28;38506;-83
2022/01/12 11:06:56;;;;;;;;;;;;;;;9.84;69.14;103782.28;5027154;28;27361;-85
2022/01/12 11:09:23;;;;;;;;;;;;;;;9.86;69.47;103770.31;5021746;28;27494;-86
2022/01/12 11:11:48;;;;;;;;;;;;;;;9.75;69.92;103740.75;5012702;28;26929;-87
2022/01/12 11:14:13;;;;;;;;;;;;;;;9.85;68.50;103753.06;5018962;28;27978;-83
2022/01/12 11:16:39;;;;;;;;;;;;;;;9.83;68.54;103753.00;5013479;28;27203;-81
2022/01/12 11:19:05;;;;;;;;;;;;;;;9.83;69.76;103745.25;5021451;28;27370;-80
2022/01/12 11:21:41;;;;;;;;;;;;;;;9.79;69.78;103742.56;5012924;28;27217;-84
2022/01/12 11:24:13;;;;;;;;;;;;;;;9.84;68.02;103746.13;5032202;28;27730;-83
2022/01/12 11:26:46;;;;;;;;;;;;;;;9.84;68.92;103730.66;5041731;27;27236;-81
2022/01/12 11:29:11;;;;;;;;;;;;;;;9.84;69.77;103734.09;5042055;28;27242;-80
2022/01/12 11:31:39;;;;;;;;;;;;;;;9.83;69.17;103736.63;5049800;28;27187;-83
2022/01/12 11:34:07;;;;;;;;;;;;;;;9.82;69.14;103735.78;5047308;28;27807;-81
2022/01/12 11:36:54;;;;;;;;;;;;;;;9.85;68.72;103737.56;5043026;28;27539;-82
2022/01/12 11:39:19;;;;;;;;;;;;;;;9.89;68.68;103739.41;5054762;27;27052;-82
2022/01/12 11:41:47;;;;;;;;;;;;;;;9.93;69.72;103739.50;5075195;27;27342;-81
2022/01/12 11:44:15;;;;;;;;;;;;;;;10.00;69.98;103737.94;5061606;27;27532;-79
2022/01/12 11:46:45;;;;;;;;;;;;;;;10.10;69.10;103740.78;5043608;27;27427;-78
2022/01/12 11:49:11;;;;;;;;;;;;;;;10.14;67.21;103741.72;5019076;28;27737;-78
2022/01/12 11:51:43;;;;;;;;;;;;;;;10.14;68.63;103739.16;5024692;27;27139;-77
2022/01/12 11:54:09;;;;;;;;;;;;;;;10.15;69.19;103738.34;5033986;27;27163;-78
2022/01/12 11:56:34;;;;;;;;;;;;;;;10.15;68.96;103748.69;5039251;28;27289;-79
2022/01/12 11:59:00;;;;;;;;;;;;;;;10.16;68.75;103750.41;5046213;27;27353;-78
2022/01/12 12:01:36;;;;;;;;;;;;;;;10.20;69.51;103751.38;5041937;28;27347;-78
2022/01/12 12:04:02;;;;;;;;;;;;;;;10.23;68.78;103749.75;5037776;28;27466;-79
2022/01/12 12:06:29;;;;;;;;;;;;;;;10.30;69.04;103749.06;5035447;27;27291;-81
2022/01/12 12:08:59;;;;;;;;;;;;;;;10.38;69.91;103752.69;5033567;27;27469;-80
2022/01/12 12:11:25;;;;;;;;;;;;;;;10.40;69.49;103760.47;5062800;27;27248;-82
2022/01/12 12:13:50;;;;;;;;;;;;;;;10.42;69.09;103748.47;5080620;27;27738;-81
2022/01/12 12:16:16;;;;;;;;;;;;;;;10.46;69.70;103735.63;5065350;27;54821;-80
2022/01/12 12:18:41;;;;;;;;;;;;;;;10.48;67.92;103728.78;5085545;27;27181;-83
2022/01/12 12:21:12;;;;;;;;;;;;;;;10.50;69.12;103736.56;5089275;27;27323;-84
2022/01/12 12:23:38;;;;;;;;;;;;;;;10.44;67.87;103721.81;5093777;27;27210;-83
2022/01/12 12:26:08;;;;;;;;;;;;;;;10.50;68.66;103727.09;5099356;27;27208;-80
2022/01/12 12:28:33;;;;;;;;;;;;;;;10.52;67.25;103722.88;5089221;27;27927;-81
2022/01/12 12:34:07;;;;;;;;;;;;;;;10.42;68.86;103723.47;5146241;27;27123;-84
2022/01/12 12:36:32;;;;;;;;;;;;;;;10.42;68.72;103725.22;5105662;27;27340;-86
2022/01/12 12:39:05;;;;;;;;;;;;;;;10.39;65.33;103731.16;5110376;27;27547;-84
2022/01/12 12:41:40;;;;;;;;;;;;;;;10.41;68.16;103737.25;5118983;27;27283;-80
2022/01/12 12:44:06;;;;;;;;;;;;;;;10.43;68.55;103735.56;5123550;27;27146;-82
2022/01/12 12:46:31;;;;;;;;;;;;;;;10.48;68.32;103739.13;5101912;27;27342;-82
2022/01/12 12:48:56;;;;;;;;;;;;;;;10.51;67.66;103744.38;5102932;27;28335;-82
2022/01/12 12:51:22;;;;;;;;;;;;;;;10.48;65.49;103749.47;5122888;27;27299;-81
2022/01/12 12:53:48;;;;;;;;;;;;;;;10.43;67.66;103761.41;5111888;27;27970;-79
2022/01/12 12:56:16;;;;;;;;;;;;;;;10.38;67.88;103747.53;5107847;27;27502;-79
2022/01/12 12:58:47;;;;;;;;;;;;;;;10.31;66.10;103739.59;5106029;27;27181;-79
2022/01/12 13:01:13;;;;;;;;;;;;;;;10.20;67.47;103741.91;5103041;27;27277;-78
2022/01/12 13:03:48;;;;;;;;;;;;;;;10.10;66.83;103740.78;5106747;27;27390;-78
2022/01/12 13:06:30;;;;;;;;;;;;;;;10.03;67.31;103738.03;5103019;27;27247;-82
2022/01/12 13:08:57;;;;;;;;;;;;;;;9.97;68.02;103743.03;5029440;28;28436;-81
2022/01/12 13:11:28;;;;;;;;;;;;;;;9.94;68.07;103737.78;5012071;28;27309;-80
2022/01/12 13:14:02;;;;;;;;;;;;;;;9.94;68.96;103737.78;5007591;28;27500;-79
2022/01/12 13:16:29;;;;;;;;;;;;;;;9.94;68.59;103727.44;5006710;28;26893;-78
2022/01/12 13:19:04;;;;;;;;;;;;;;;9.92;66.26;103739.47;4993336;28;27845;-79
2022/01/12 13:21:31;;;;;;;;;;;;;;;9.89;67.51;103734.22;5017520;28;27400;-79
2022/01/12 13:23:57;;;;;;;;;;;;;;;9.86;67.97;103735.00;5015770;28;28254;-79
2022/01/12 13:26:23;;;;;;;;;;;;;;;9.83;68.01;103744.38;5021735;28;27460;-79
2022/01/12 13:28:50;;;;;;;;;;;;;;;9.83;68.17;103749.53;5028125;28;27284;-79
2022/01/12 13:31:16;;;;;;;;;;;;;;;9.86;68.00;103749.66;5034547;28;27454;-79
2022/01/12 13:33:43;;;;;;;;;;;;;;;9.94;68.02;103748.09;5039157;28;27195;-80
2022/01/12 13:36:15;;;;;;;;;;;;;;;10.00;68.37;103748.28;5045258;28;27401;-80
2022/01/12 13:38:41;;;;;;;;;;;;;;;10.06;68.41;103753.59;5048657;28;27310;-80
2022/01/12 13:41:07;;;;;;;;;;;;;;;10.10;67.38;103750.25;5114808;27;27271;-79
2022/01/12 13:43:32;;;;;;;;;;;;;;;10.11;68.44;103752.00;5117728;27;27481;-78
2022/01/12 13:46:04;;;;;;;;;;;;;;;10.13;67.47;103750.31;5118162;27;26966;-79
2022/01/12 13:48:31;;;;;;;;;;;;;;;10.15;68.50;103746.09;5118429;27;27489;-79
2022/01/12 13:50:57;;;;;;;;;;;;;;;10.12;67.64;103749.44;5116621;27;27286;-79
2022/01/12 13:53:32;;;;;;;;;;;;;;;10.10;67.59;103745.06;5117586;27;27371;-79
2022/01/12 13:55:57;;;;;;;;;;;;;;;10.04;67.98;103750.09;5116185;27;27160;-79
2022/01/12 13:58:26;;;;;;;;;;;;;;;9.94;67.96;103753.28;5115375;27;27202;-80
2022/01/12 14:00:58;;;;;;;;;;;;;;;9.86;66.91;103744.50;5110141;27;27240;-79
2022/01/12 14:03:24;;;;;;;;;;;;;;;9.77;67.89;103749.41;5107223;27;28295;-78